createdAt,value
2022-10-22T00:00:11.374Z,13.73
2022-10-22T00:02:38.353Z,13.54
2022-10-22T00:05:05.839Z,13.67
2022-10-22T00:07:33.208Z,13.75
2022-10-22T00:10:00.038Z,13.47
2022-10-22T00:12:27.628Z,13.73
2022-10-22T00:14:54.487Z,13.66
2022-10-22T00:17:21.469Z,13.62
2022-10-22T00:19:48.220Z,13.58
2022-10-22T00:22:15.074Z,13.57
2022-10-22T00:24:42.441Z,13.64
2022-10-22T00:27:10.882Z,13.59
2022-10-22T00:29:37.791Z,13.55
2022-10-22T00:32:05.597Z,13.57
2022-10-22T00:34:32.588Z,13.20
2022-10-22T00:36:59.374Z,13.15
2022-10-22T00:39:27.567Z,12.28
2022-10-22T00:41:55.944Z,12.61
2022-10-22T00:45:00.401Z,12.77
2022-10-22T00:47:37.315Z,12.53
2022-10-22T00:50:09.108Z,12.71
2022-10-22T00:52:36.526Z,12.45
2022-10-22T00:55:03.818Z,12.88
2022-10-22T00:57:31.020Z,12.25
2022-10-22T00:59:58.483Z,11.53
2022-10-22T01:02:25.539Z,12.40
2022-10-22T01:04:52.736Z,12.40
2022-10-22T01:07:22.608Z,12.26
2022-10-22T01:10:14.011Z,12.39
2022-10-22T01:12:50.941Z,11.96
2022-10-22T01:15:48.277Z,12.57
2022-10-22T01:18:44.687Z,12.34
2022-10-22T01:21:31.634Z,12.52
2022-10-22T01:24:07.401Z,12.47
2022-10-22T01:26:52.927Z,11.85
2022-10-22T01:29:29.626Z,11.71
2022-10-22T01:32:02.955Z,12.36
2022-10-22T01:34:31.954Z,12.51
2022-10-22T01:37:00.408Z,12.73
2022-10-22T01:39:29.562Z,12.63
2022-10-22T01:41:58.505Z,12.71
2022-10-22T01:44:27.811Z,12.68
2022-10-22T01:47:32.990Z,12.90
2022-10-22T01:50:31.635Z,12.93
2022-10-22T01:53:09.571Z,12.88
2022-10-22T01:55:48.434Z,12.92
2022-10-22T01:58:47.623Z,12.91
2022-10-22T02:01:28.304Z,12.87
2022-10-22T02:04:09.326Z,12.54
2022-10-22T02:06:38.559Z,12.71
2022-10-22T02:09:07.670Z,11.69
2022-10-22T02:11:35.138Z,12.06
2022-10-22T02:14:04.861Z,12.41
2022-10-22T02:16:36.707Z,12.52
2022-10-22T02:19:10.647Z,12.00
2022-10-22T02:21:37.923Z,11.83
2022-10-22T02:24:05.020Z,11.53
2022-10-22T02:26:40.303Z,12.22
2022-10-22T02:29:11.444Z,12.05
2022-10-22T02:31:43.404Z,11.99
2022-10-22T02:34:19.275Z,12.06
2022-10-22T02:36:50.332Z,12.35
2022-10-22T02:39:20.529Z,12.27
2022-10-22T02:41:47.843Z,12.31
2022-10-22T02:44:14.800Z,12.37
2022-10-22T02:46:43.578Z,12.50
2022-10-22T02:49:10.481Z,12.55
2022-10-22T02:51:37.252Z,11.78
2022-10-22T02:54:04.030Z,11.52
2022-10-22T02:56:30.927Z,11.65
2022-10-22T02:58:57.996Z,12.02
2022-10-22T03:01:24.854Z,11.94
2022-10-22T03:03:51.676Z,10.96
2022-10-22T03:06:18.445Z,10.90
2022-10-22T03:08:46.899Z,11.76
2022-10-22T03:11:13.628Z,11.58
2022-10-22T03:13:40.417Z,11.08
2022-10-22T03:16:07.204Z,11.22
2022-10-22T03:18:34.256Z,11.37
2022-10-22T03:21:19.468Z,11.62
2022-10-22T03:23:47.970Z,11.91
2022-10-22T03:26:15.220Z,12.01
2022-10-22T03:28:42.500Z,11.95
2022-10-22T03:31:09.588Z,12.02
2022-10-22T03:33:36.425Z,12.06
2022-10-22T03:36:03.590Z,12.01
2022-10-22T03:38:30.788Z,12.21
2022-10-22T03:40:58.382Z,12.09
2022-10-22T03:43:25.186Z,12.00
2022-10-22T03:45:51.964Z,12.13
2022-10-22T03:48:18.861Z,12.14
2022-10-22T03:50:45.646Z,12.14
2022-10-22T03:53:12.406Z,12.07
2022-10-22T03:55:41.244Z,12.11
2022-10-22T03:58:07.996Z,12.19
2022-10-22T04:00:35.792Z,12.20
2022-10-22T04:03:02.798Z,11.96
2022-10-22T04:05:29.533Z,12.18
2022-10-22T04:07:56.271Z,12.12
2022-10-22T04:10:23.026Z,12.10
2022-10-22T04:12:50.027Z,12.03
2022-10-22T04:15:17.038Z,12.06
2022-10-22T04:17:44.052Z,12.14
2022-10-22T04:20:11.218Z,12.17
2022-10-22T04:22:38.107Z,12.19
2022-10-22T04:25:05.468Z,12.06
2022-10-22T04:27:33.355Z,12.06
2022-10-22T04:30:00.290Z,12.17
2022-10-22T04:32:28.157Z,12.08
2022-10-22T04:34:55.031Z,12.15
2022-10-22T04:37:22.031Z,12.11
2022-10-22T04:39:49.169Z,12.10
2022-10-22T04:42:16.093Z,12.08
2022-10-22T04:44:42.830Z,12.17
2022-10-22T04:47:09.709Z,11.97
2022-10-22T04:49:36.504Z,12.10
2022-10-22T04:52:03.576Z,12.35
2022-10-22T04:54:32.971Z,12.21
2022-10-22T04:57:00.253Z,12.07
2022-10-22T04:59:26.984Z,12.15
2022-10-22T05:01:53.892Z,12.22
2022-10-22T05:04:20.585Z,12.15
2022-10-22T05:06:47.627Z,12.41
2022-10-22T05:09:17.368Z,12.35
2022-10-22T05:11:48.312Z,12.21
2022-10-22T05:14:18.343Z,12.43
2022-10-22T05:16:48.263Z,12.36
2022-10-22T05:19:24.137Z,12.63
2022-10-22T05:21:55.299Z,12.53
2022-10-22T05:24:22.651Z,12.47
2022-10-22T05:26:54.010Z,12.53
2022-10-22T05:29:21.680Z,12.63
2022-10-22T05:31:48.477Z,12.54
2022-10-22T05:34:15.479Z,12.49
2022-10-22T05:36:42.475Z,12.36
2022-10-22T05:39:09.478Z,12.40
2022-10-22T05:41:36.708Z,11.88
2022-10-22T05:44:04.083Z,12.21
2022-10-22T05:46:34.673Z,12.38
2022-10-22T05:49:06.210Z,12.22
2022-10-22T05:51:36.253Z,12.18
2022-10-22T05:54:06.541Z,11.90
2022-10-22T05:56:34.303Z,11.46
2022-10-22T06:01:35.590Z,12.13
2022-10-22T06:04:07.271Z,12.53
2022-10-22T06:06:54.333Z,12.23
2022-10-22T06:12:10.867Z,12.76
2022-10-22T06:14:37.683Z,12.14
2022-10-22T06:17:04.459Z,12.39
2022-10-22T06:19:31.390Z,12.84
2022-10-22T06:21:58.560Z,12.45
2022-10-22T06:24:25.369Z,12.91
2022-10-22T06:26:52.688Z,12.51
2022-10-22T06:29:19.786Z,12.47
2022-10-22T06:31:46.496Z,12.90
2022-10-22T06:34:14.549Z,12.79
2022-10-22T06:36:44.546Z,12.51
2022-10-22T06:39:13.196Z,13.23
2022-10-22T06:41:40.720Z,13.22
2022-10-22T06:44:07.985Z,13.18
2022-10-22T06:46:36.093Z,13.35
2022-10-22T06:49:05.787Z,13.58
2022-10-22T06:51:32.633Z,13.69
2022-10-22T06:53:59.475Z,13.53
2022-10-22T06:56:29.287Z,13.45
2022-10-22T06:58:57.747Z,13.71
2022-10-22T07:01:27.676Z,13.84
2022-10-22T07:03:54.884Z,13.62
2022-10-22T07:06:22.664Z,13.58
2022-10-22T07:08:49.757Z,13.93
2022-10-22T07:11:21.497Z,14.39
2022-10-22T07:13:48.941Z,14.62
2022-10-22T07:16:17.696Z,14.81
2022-10-22T07:18:45.296Z,15.02
2022-10-22T07:21:13.835Z,15.09
2022-10-22T07:23:40.976Z,14.62
2022-10-22T07:26:08.719Z,14.39
2022-10-22T07:28:38.835Z,14.32
2022-10-22T07:31:12.062Z,14.41
2022-10-22T07:33:40.320Z,14.74
2022-10-22T07:36:10.330Z,15.73
2022-10-22T07:38:37.436Z,15.72
2022-10-22T07:41:04.792Z,15.48
2022-10-22T07:43:31.559Z,15.89
2022-10-22T07:45:59.715Z,14.80
2022-10-22T07:48:26.565Z,15.09
2022-10-22T07:50:53.648Z,15.43
2022-10-22T07:53:21.362Z,15.50
2022-10-22T07:55:50.079Z,15.43
2022-10-22T07:58:18.260Z,15.64
2022-10-22T08:00:45.686Z,16.26
2022-10-22T08:03:15.341Z,16.48
2022-10-22T08:05:43.937Z,16.23
2022-10-22T08:08:15.313Z,16.93
2022-10-22T08:10:43.046Z,16.97
2022-10-22T08:13:09.784Z,16.91
2022-10-22T08:15:36.912Z,17.22
2022-10-22T08:18:03.772Z,17.31
2022-10-22T08:20:30.696Z,17.91
2022-10-22T08:22:58.635Z,18.89
2022-10-22T08:25:25.838Z,19.27
2022-10-22T08:27:52.736Z,18.05
2022-10-22T08:30:20.011Z,17.88
2022-10-22T08:32:49.303Z,17.28
2022-10-22T08:35:18.515Z,17.49
2022-10-22T08:37:45.177Z,17.06
2022-10-22T08:40:26.059Z,17.86
2022-10-22T08:43:07.703Z,18.01
2022-10-22T08:46:02.153Z,18.04
2022-10-22T08:48:38.376Z,18.43
2022-10-22T08:51:05.897Z,18.48
2022-10-22T08:54:04.546Z,18.87
2022-10-22T08:56:35.048Z,18.90
2022-10-22T08:59:14.916Z,19.92
2022-10-22T09:01:51.286Z,19.15
2022-10-22T09:04:34.267Z,19.69
2022-10-22T09:07:01.207Z,19.32
2022-10-22T09:09:35.134Z,19.34
2022-10-22T09:12:05.060Z,19.82
2022-10-22T09:14:31.934Z,20.21
2022-10-22T09:17:35.479Z,20.38
2022-10-22T09:20:16.076Z,19.42
2022-10-22T09:22:53.028Z,20.46
2022-10-22T09:25:32.689Z,19.99
2022-10-22T09:27:59.599Z,20.36
2022-10-22T09:30:33.441Z,20.74
2022-10-22T09:33:06.562Z,21.26
2022-10-22T09:35:44.843Z,21.00
2022-10-22T09:38:14.321Z,20.23
2022-10-22T09:40:50.787Z,20.45
2022-10-22T09:43:18.666Z,20.36
2022-10-22T09:45:46.630Z,20.69
2022-10-22T09:48:34.462Z,20.84
2022-10-22T09:51:20.833Z,20.66
2022-10-22T09:54:01.648Z,20.85
2022-10-22T09:56:37.827Z,21.29
2022-10-22T09:59:04.652Z,21.45
2022-10-22T10:01:38.514Z,20.49
2022-10-22T10:04:09.864Z,21.08
2022-10-22T10:06:40.382Z,20.47
2022-10-22T10:09:17.540Z,21.45
2022-10-22T10:12:04.551Z,21.38
2022-10-22T10:14:47.656Z,21.63
2022-10-22T10:18:03.893Z,21.68
2022-10-22T10:20:45.010Z,21.55
2022-10-22T10:23:27.015Z,21.21
2022-10-22T10:26:42.020Z,21.60
2022-10-22T10:29:27.557Z,21.27
2022-10-22T10:32:06.537Z,22.22
2022-10-22T10:34:54.191Z,21.98
2022-10-22T10:37:28.135Z,22.17
2022-10-22T10:40:16.303Z,21.87
2022-10-22T10:43:00.640Z,22.50
2022-10-22T10:46:01.823Z,22.34
2022-10-22T10:48:47.490Z,22.60
2022-10-22T10:51:26.001Z,22.01
2022-10-22T10:53:55.910Z,21.91
2022-10-22T10:56:44.742Z,21.89
2022-10-22T10:59:14.168Z,22.20
2022-10-22T11:02:11.185Z,22.91
2022-10-22T11:04:47.033Z,22.52
2022-10-22T11:07:30.316Z,22.87
2022-10-22T11:10:10.191Z,22.77
2022-10-22T11:12:42.701Z,22.92
2022-10-22T11:15:32.157Z,23.19
2022-10-22T11:18:16.900Z,23.80
2022-10-22T11:20:56.198Z,23.78
2022-10-22T11:23:36.012Z,23.51
2022-10-22T11:26:08.040Z,23.54
2022-10-22T11:28:54.919Z,23.99
2022-10-22T11:31:25.352Z,23.55
2022-10-22T11:34:33.279Z,23.32
2022-10-22T11:37:03.040Z,23.82
2022-10-22T11:39:53.724Z,23.72
2022-10-22T11:42:34.333Z,24.77
2022-10-22T11:45:05.906Z,23.71
2022-10-22T11:47:59.836Z,24.62
2022-10-22T11:50:43.280Z,23.87
2022-10-22T11:53:13.154Z,24.07
2022-10-22T11:55:48.955Z,24.46
2022-10-22T11:58:39.260Z,24.87
2022-10-22T12:01:09.894Z,25.51
2022-10-22T12:03:59.552Z,24.71
2022-10-22T12:06:27.909Z,26.17
2022-10-22T12:08:54.840Z,25.88
2022-10-22T12:11:50.422Z,26.49
2022-10-22T12:14:29.580Z,26.22
2022-10-22T12:17:13.106Z,26.86
2022-10-22T12:19:41.551Z,26.71
2022-10-22T12:22:19.439Z,26.53
2022-10-22T12:24:52.435Z,27.38
2022-10-22T12:27:26.483Z,28.23
2022-10-22T12:29:55.661Z,27.71
2022-10-22T12:32:23.230Z,27.96
2022-10-22T12:34:52.214Z,27.82
2022-10-22T12:37:20.548Z,27.68
2022-10-22T12:39:48.549Z,28.46
2022-10-22T12:42:17.815Z,29.20
2022-10-22T12:44:45.370Z,28.47
2022-10-22T12:47:18.464Z,29.31
2022-10-22T12:49:51.445Z,28.56
2022-10-22T12:52:22.831Z,29.67
2022-10-22T12:54:52.634Z,30.17
2022-10-22T12:57:20.356Z,28.43
2022-10-22T12:59:50.667Z,30.46
2022-10-22T13:02:21.331Z,30.83
2022-10-22T13:05:14.947Z,30.38
2022-10-22T13:07:47.149Z,31.16
2022-10-22T13:10:36.759Z,30.27
2022-10-22T13:13:06.869Z,30.09
2022-10-22T13:15:38.010Z,29.60
2022-10-22T13:18:17.468Z,28.02
2022-10-22T13:21:03.087Z,28.42
2022-10-22T13:23:34.545Z,29.65
2022-10-22T13:26:11.612Z,30.81
2022-10-22T13:28:40.641Z,30.83
2022-10-22T13:31:17.187Z,31.06
2022-10-22T13:33:47.109Z,30.82
2022-10-22T13:36:16.123Z,31.09
2022-10-22T13:38:44.489Z,31.23
2022-10-22T13:41:28.400Z,31.09
2022-10-22T13:43:55.737Z,30.00
2022-10-22T13:46:24.342Z,29.69
2022-10-22T13:48:53.783Z,29.10
2022-10-22T13:51:27.563Z,29.69
2022-10-22T13:53:54.791Z,29.71
2022-10-22T13:56:40.388Z,29.12
2022-10-22T13:59:08.231Z,29.06
2022-10-22T14:01:37.429Z,28.30
2022-10-22T14:04:07.681Z,27.92
2022-10-22T14:09:11.992Z,27.83
2022-10-22T14:11:39.067Z,27.75
2022-10-22T14:14:09.110Z,27.49
2022-10-22T14:16:40.216Z,27.41
2022-10-22T14:19:14.483Z,27.31
2022-10-22T14:21:41.364Z,27.32
2022-10-22T14:24:12.907Z,26.78
2022-10-22T14:26:41.043Z,26.22
2022-10-22T14:29:10.147Z,26.18
2022-10-22T14:34:15.326Z,26.01
2022-10-22T14:36:44.946Z,25.93
2022-10-22T14:39:12.775Z,25.74
2022-10-22T14:41:41.331Z,25.79
2022-10-22T14:44:14.042Z,25.77
2022-10-22T14:46:42.732Z,25.69
2022-10-22T14:49:09.666Z,25.60
2022-10-22T14:51:36.682Z,25.63
2022-10-22T14:54:03.540Z,25.63
2022-10-22T14:56:30.944Z,25.61
2022-10-22T14:58:57.687Z,25.70
2022-10-22T15:01:24.540Z,25.54
2022-10-22T15:03:51.254Z,25.48
2022-10-22T15:06:18.061Z,25.66
2022-10-22T15:08:45.616Z,25.31
2022-10-22T15:11:13.422Z,25.12
2022-10-22T15:13:41.403Z,25.16
2022-10-22T15:16:10.444Z,25.07
2022-10-22T15:18:37.589Z,24.85
2022-10-22T15:21:14.325Z,24.87
2022-10-22T15:23:41.400Z,24.77
2022-10-22T15:26:12.901Z,24.76
2022-10-22T15:28:41.218Z,24.81
2022-10-22T15:31:08.775Z,24.62
2022-10-22T15:33:36.138Z,24.09
2022-10-22T15:36:11.814Z,23.55
2022-10-22T15:38:38.558Z,23.40
2022-10-22T15:41:07.653Z,23.58
2022-10-22T15:43:34.931Z,23.37
2022-10-22T15:46:14.977Z,23.27
2022-10-22T15:48:42.451Z,23.36
2022-10-22T15:51:14.785Z,23.23
2022-10-22T15:53:42.289Z,23.45
2022-10-22T15:56:11.692Z,23.33
2022-10-22T15:58:39.016Z,23.47
2022-10-22T16:01:12.035Z,23.21
2022-10-22T16:03:39.844Z,22.56
2022-10-22T16:06:10.509Z,22.05
2022-10-22T16:08:38.453Z,22.57
2022-10-22T16:11:05.687Z,22.96
2022-10-22T16:13:32.407Z,22.84
2022-10-22T16:15:59.246Z,22.56
2022-10-22T16:18:25.924Z,22.18
2022-10-22T16:20:52.894Z,22.01
2022-10-22T16:23:20.916Z,22.51
2022-10-22T16:25:47.814Z,21.41
2022-10-22T16:28:14.800Z,21.60
2022-10-22T16:30:41.862Z,21.61
2022-10-22T16:33:11.104Z,21.50
2022-10-22T16:35:42.405Z,21.82
2022-10-22T16:38:10.980Z,21.72
2022-10-22T16:40:38.175Z,21.21
2022-10-22T16:43:05.790Z,21.30
2022-10-22T16:45:32.465Z,21.44
2022-10-22T16:47:59.667Z,21.20
2022-10-22T16:50:26.711Z,21.44
2022-10-22T16:52:53.553Z,21.29
2022-10-22T16:55:20.570Z,21.48
2022-10-22T16:57:51.933Z,21.61
2022-10-22T17:00:19.573Z,21.32
2022-10-22T17:02:59.830Z,21.02
2022-10-22T17:05:26.772Z,21.17
2022-10-22T17:07:53.692Z,21.46
2022-10-22T17:10:20.942Z,21.55
2022-10-22T17:12:48.345Z,21.59
2022-10-22T17:15:15.493Z,21.67
2022-10-22T17:17:42.476Z,21.34
2022-10-22T17:20:10.569Z,21.13
2022-10-22T17:22:37.442Z,21.23
2022-10-22T17:25:12.421Z,21.51
2022-10-22T17:27:40.296Z,21.70
2022-10-22T17:30:08.645Z,21.58
2022-10-22T17:32:38.254Z,21.59
2022-10-22T17:35:06.781Z,21.64
2022-10-22T17:37:34.535Z,21.43
2022-10-22T17:40:02.903Z,21.49
2022-10-22T17:42:30.051Z,21.20
2022-10-22T17:44:57.311Z,21.41
2022-10-22T17:47:24.187Z,21.10
2022-10-22T17:49:51.169Z,21.11
2022-10-22T17:52:18.153Z,20.97
2022-10-22T17:54:44.927Z,20.58
2022-10-22T17:57:12.699Z,20.36
2022-10-22T17:59:39.535Z,20.38
2022-10-22T18:02:07.027Z,20.40
2022-10-22T18:04:35.633Z,20.62
2022-10-22T18:07:02.361Z,20.53
2022-10-22T18:09:29.144Z,20.53
2022-10-22T18:11:55.940Z,20.17
2022-10-22T18:14:23.728Z,20.00
2022-10-22T18:16:51.296Z,20.22
2022-10-22T18:19:21.859Z,19.71
2022-10-22T18:21:49.035Z,19.72
2022-10-22T18:24:16.809Z,20.04
2022-10-22T18:26:44.246Z,19.97
2022-10-22T18:29:15.270Z,20.10
2022-10-22T18:31:42.108Z,19.87
2022-10-22T18:34:09.031Z,19.74
2022-10-22T18:36:36.820Z,19.51
2022-10-22T18:39:05.094Z,19.22
2022-10-22T18:41:33.429Z,19.31
2022-10-22T18:44:02.659Z,19.39
2022-10-22T18:46:32.156Z,18.97
2022-10-22T18:48:59.155Z,18.86
2022-10-22T18:51:30.112Z,19.13
2022-10-22T18:54:05.260Z,19.33
2022-10-22T18:56:44.909Z,19.39
2022-10-22T18:59:23.905Z,19.38
2022-10-22T19:01:54.595Z,19.58
2022-10-22T19:04:21.812Z,19.37
2022-10-22T19:06:48.663Z,19.12
2022-10-22T19:09:15.968Z,19.06
2022-10-22T19:11:45.276Z,19.23
2022-10-22T19:14:14.623Z,19.06
2022-10-22T19:16:41.576Z,19.17
2022-10-22T19:19:08.582Z,19.23
2022-10-22T19:21:36.501Z,19.11
2022-10-22T19:24:03.464Z,18.39
2022-10-22T19:26:30.734Z,18.66
2022-10-22T19:28:58.758Z,18.94
2022-10-22T19:31:26.915Z,19.01
2022-10-22T19:33:56.611Z,19.21
2022-10-22T19:36:25.424Z,18.95
2022-10-22T19:38:52.521Z,17.77
2022-10-22T19:41:21.225Z,18.11
2022-10-22T19:43:50.527Z,17.33
2022-10-22T19:46:18.508Z,18.07
2022-10-22T19:51:22.654Z,18.57
2022-10-22T19:53:51.267Z,18.83
2022-10-22T19:56:20.195Z,18.73
2022-10-22T19:58:47.685Z,18.83
2022-10-22T20:01:16.676Z,18.94
2022-10-22T20:03:43.852Z,18.82
2022-10-22T20:06:12.837Z,18.64
2022-10-22T20:08:40.306Z,18.52
2022-10-22T20:11:13.448Z,18.62
2022-10-22T20:16:07.251Z,18.65
2022-10-22T20:18:34.280Z,18.67
2022-10-22T20:21:08.701Z,18.90
2022-10-22T20:23:36.705Z,18.72
2022-10-22T20:26:05.123Z,18.65
2022-10-22T20:28:32.450Z,18.71
2022-10-22T20:30:59.243Z,18.74
2022-10-22T20:33:26.092Z,18.78
2022-10-22T20:36:05.173Z,18.81
2022-10-22T20:38:32.234Z,18.71
2022-10-22T20:41:07.588Z,18.70
2022-10-22T20:43:34.336Z,18.58
2022-10-22T20:46:01.580Z,18.55
2022-10-22T20:48:31.378Z,18.67
2022-10-22T20:51:01.739Z,18.80
2022-10-22T20:53:28.652Z,18.50
2022-10-22T20:55:59.019Z,17.29
2022-10-22T20:58:27.568Z,17.59
2022-10-22T21:00:55.445Z,17.24
2022-10-22T21:03:22.709Z,17.28
2022-10-22T21:05:49.992Z,16.42
2022-10-22T21:08:17.774Z,16.98
2022-10-22T21:10:49.557Z,17.41
2022-10-22T21:13:19.475Z,16.90
2022-10-22T21:15:46.287Z,17.16
2022-10-22T21:18:13.047Z,17.47
2022-10-22T21:20:40.928Z,17.51
2022-10-22T21:23:08.749Z,16.65
2022-10-22T21:25:38.478Z,16.93
2022-10-22T21:28:08.657Z,16.67
2022-10-22T21:30:35.447Z,16.34
2022-10-22T21:33:02.190Z,17.01
2022-10-22T21:35:29.049Z,17.12
2022-10-22T21:37:55.922Z,17.22
2022-10-22T21:40:22.719Z,17.27
2022-10-22T21:42:50.824Z,17.26
2022-10-22T21:45:21.387Z,17.32
2022-10-22T21:47:49.135Z,17.63
2022-10-22T21:50:16.094Z,17.60
2022-10-22T21:52:42.839Z,17.20
2022-10-22T21:55:10.258Z,16.73
2022-10-22T21:57:36.968Z,17.12
2022-10-22T22:00:06.383Z,17.29
2022-10-22T22:02:33.549Z,17.39
2022-10-22T22:05:00.340Z,17.33
2022-10-22T22:07:27.116Z,17.29
2022-10-22T22:09:54.052Z,17.28
2022-10-22T22:12:21.236Z,17.42
2022-10-22T22:14:48.010Z,17.38
2022-10-22T22:17:16.533Z,17.20
2022-10-22T22:19:43.298Z,17.06
2022-10-22T22:22:10.347Z,16.39
2022-10-22T22:24:39.761Z,16.26
2022-10-22T22:27:06.669Z,16.52
2022-10-22T22:29:35.566Z,16.51
2022-10-22T22:32:02.381Z,16.67
2022-10-22T22:34:30.205Z,16.61
2022-10-22T22:36:57.027Z,16.19
2022-10-22T22:39:23.801Z,16.53
2022-10-22T22:41:50.731Z,16.85
2022-10-22T22:44:17.984Z,16.83
2022-10-22T22:46:44.736Z,16.72
2022-10-22T22:49:13.215Z,16.91
2022-10-22T22:51:40.121Z,16.83
2022-10-22T22:54:06.933Z,16.86
2022-10-22T22:56:34.694Z,16.63
2022-10-22T22:59:02.475Z,16.66
2022-10-22T23:01:31.784Z,16.92
2022-10-22T23:04:04.354Z,16.88
2022-10-22T23:06:33.843Z,17.09
2022-10-22T23:09:00.749Z,16.68
2022-10-22T23:11:28.015Z,16.66
2022-10-22T23:14:00.729Z,16.57
2022-10-22T23:16:31.094Z,16.72
2022-10-22T23:18:58.226Z,16.67
2022-10-22T23:21:31.693Z,16.68
2022-10-22T23:24:04.494Z,16.56
2022-10-22T23:26:34.129Z,16.59
2022-10-22T23:29:05.810Z,15.72
2022-10-22T23:31:32.710Z,16.18
2022-10-22T23:33:59.676Z,16.61
2022-10-22T23:36:27.224Z,16.74
2022-10-22T23:38:54.482Z,16.58
2022-10-22T23:41:21.674Z,15.97
2022-10-22T23:43:50.333Z,15.71
2022-10-22T23:46:17.015Z,16.06
2022-10-22T23:48:44.022Z,16.24
2022-10-22T23:51:15.879Z,16.56
2022-10-22T23:53:44.596Z,16.54
2022-10-22T23:56:16.560Z,16.15
2022-10-22T23:58:44.547Z,16.39
